createdAt,value
2019-02-17T00:00:55.184Z,43.98
2019-02-17T00:03:24.614Z,44.00
2019-02-17T00:05:53.972Z,44.47
2019-02-17T00:08:23.407Z,43.82
2019-02-17T00:10:52.757Z,43.83
2019-02-17T00:13:22.134Z,43.66
2019-02-17T00:15:51.496Z,43.88
2019-02-17T00:18:20.855Z,44.63
2019-02-17T00:20:50.218Z,44.84
2019-02-17T00:23:19.572Z,44.92
2019-02-17T00:25:48.915Z,43.56
2019-02-17T00:28:18.279Z,43.63
2019-02-17T00:30:48.893Z,43.76
2019-02-17T00:33:18.245Z,43.90
2019-02-17T00:35:47.594Z,43.84
2019-02-17T00:38:16.952Z,44.11
2019-02-17T00:40:46.333Z,44.21
2019-02-17T00:43:15.765Z,44.48
2019-02-17T00:45:45.109Z,44.49
2019-02-17T00:48:14.485Z,44.47
2019-02-17T00:50:43.934Z,44.52
2019-02-17T00:53:13.295Z,44.73
2019-02-17T00:55:42.722Z,44.68
2019-02-17T00:58:12.105Z,44.21
2019-02-17T01:00:41.471Z,45.72
2019-02-17T01:03:10.833Z,44.78
2019-02-17T01:05:40.186Z,44.12
2019-02-17T01:08:09.541Z,44.57
2019-02-17T01:10:38.892Z,44.91
2019-02-17T01:13:08.251Z,45.34
2019-02-17T01:15:37.599Z,46.02
2019-02-17T01:18:06.967Z,45.07
2019-02-17T01:20:36.389Z,44.46
2019-02-17T01:23:05.756Z,45.94
2019-02-17T01:25:35.112Z,44.77
2019-02-17T01:28:04.487Z,44.09
2019-02-17T01:30:33.828Z,46.17
2019-02-17T01:33:03.201Z,44.78
2019-02-17T01:35:32.562Z,44.08
2019-02-17T01:38:01.935Z,44.18
2019-02-17T01:40:31.302Z,44.53
2019-02-17T01:43:00.665Z,44.97
2019-02-17T01:45:30.027Z,44.50
2019-02-17T01:47:59.398Z,44.61
2019-02-17T01:50:28.760Z,44.50
2019-02-17T01:52:58.133Z,44.37
2019-02-17T01:55:27.567Z,44.63
2019-02-17T01:57:56.937Z,44.20
2019-02-17T02:00:26.379Z,44.60
2019-02-17T02:02:55.746Z,44.43
2019-02-17T02:05:25.092Z,44.35
2019-02-17T02:07:54.457Z,45.19
2019-02-17T02:10:23.806Z,44.21
2019-02-17T02:12:53.164Z,43.88
2019-02-17T02:15:22.605Z,43.98
2019-02-17T02:17:51.968Z,43.97
2019-02-17T02:20:21.603Z,43.78
2019-02-17T02:22:50.948Z,44.33
2019-02-17T02:25:20.316Z,44.62
2019-02-17T02:27:49.690Z,44.45
2019-02-17T02:30:19.074Z,44.06
2019-02-17T02:32:48.551Z,44.29
2019-02-17T02:35:17.864Z,43.96
2019-02-17T02:37:47.229Z,44.29
2019-02-17T02:40:16.598Z,44.43
2019-02-17T02:42:45.945Z,43.98
2019-02-17T02:45:15.318Z,44.14
2019-02-17T02:47:44.675Z,44.64
2019-02-17T02:50:14.152Z,43.85
2019-02-17T02:52:43.500Z,43.93
2019-02-17T02:55:13.009Z,44.27
2019-02-17T02:57:42.363Z,44.12
2019-02-17T03:00:12.153Z,44.33
2019-02-17T03:02:41.514Z,43.23
2019-02-17T03:05:11.027Z,43.05
2019-02-17T03:07:40.388Z,43.18
2019-02-17T03:10:09.843Z,43.51
2019-02-17T03:12:39.267Z,43.75
2019-02-17T03:15:08.785Z,43.74
2019-02-17T03:17:38.157Z,43.29
2019-02-17T03:20:08.134Z,43.45
2019-02-17T03:22:37.490Z,43.64
2019-02-17T03:25:06.950Z,43.69
2019-02-17T03:27:36.366Z,43.65
2019-02-17T03:30:07.258Z,43.80
2019-02-17T03:32:36.693Z,44.28
2019-02-17T03:35:06.254Z,43.57
2019-02-17T03:37:35.705Z,43.63
2019-02-17T03:40:06.553Z,43.66
2019-02-17T03:42:35.940Z,43.79
2019-02-17T03:45:05.463Z,43.23
2019-02-17T03:47:34.827Z,43.45
2019-02-17T03:50:04.502Z,43.71
2019-02-17T03:52:33.990Z,44.10
2019-02-17T03:55:03.477Z,44.35
2019-02-17T03:57:32.877Z,44.21
2019-02-17T04:00:02.286Z,44.06
2019-02-17T04:02:31.781Z,44.37
2019-02-17T04:05:01.198Z,43.50
2019-02-17T04:07:30.596Z,44.07
2019-02-17T04:10:00.045Z,44.11
2019-02-17T04:12:29.587Z,43.85
2019-02-17T04:14:59.105Z,44.37
2019-02-17T04:17:28.593Z,44.91
2019-02-17T04:19:58.023Z,43.72
2019-02-17T04:22:28.116Z,44.82
2019-02-17T04:24:57.520Z,44.88
2019-02-17T04:27:27.023Z,44.15
2019-02-17T04:29:56.412Z,43.78
2019-02-17T04:32:25.944Z,43.76
2019-02-17T04:34:55.347Z,43.25
2019-02-17T04:37:24.826Z,43.58
2019-02-17T04:39:54.220Z,43.27
2019-02-17T04:42:23.587Z,44.17
2019-02-17T04:44:53.061Z,43.84
2019-02-17T04:47:22.466Z,45.16
2019-02-17T04:49:51.941Z,45.73
2019-02-17T04:52:21.309Z,44.64
2019-02-17T04:54:50.757Z,44.78
2019-02-17T04:57:20.178Z,45.17
2019-02-17T04:59:49.683Z,45.31
2019-02-17T05:02:19.112Z,44.30
2019-02-17T05:04:48.502Z,45.09
2019-02-17T05:07:17.893Z,45.29
2019-02-17T05:09:47.287Z,44.76
2019-02-17T05:12:16.780Z,45.72
2019-02-17T05:14:46.200Z,45.13
2019-02-17T05:17:15.620Z,44.38
2019-02-17T05:19:45.090Z,43.53
2019-02-17T05:22:14.660Z,43.80
2019-02-17T05:24:44.020Z,43.41
2019-02-17T05:27:13.412Z,43.13
2019-02-17T05:29:42.783Z,43.23
2019-02-17T05:32:12.216Z,41.79
2019-02-17T05:34:41.611Z,42.03
2019-02-17T05:37:11.011Z,42.25
2019-02-17T05:39:40.400Z,42.47
2019-02-17T05:42:09.952Z,42.19
2019-02-17T05:44:39.431Z,43.29
2019-02-17T05:47:08.810Z,43.46
2019-02-17T05:49:38.238Z,41.77
2019-02-17T05:52:07.817Z,42.03
2019-02-17T05:54:37.190Z,42.44
2019-02-17T05:57:06.760Z,43.74
2019-02-17T05:59:36.231Z,42.60
2019-02-17T06:02:05.741Z,41.86
2019-02-17T06:04:35.212Z,43.02
2019-02-17T06:07:04.685Z,42.92
2019-02-17T06:09:34.066Z,41.90
2019-02-17T06:12:03.580Z,41.32
2019-02-17T06:14:32.974Z,41.96
2019-02-17T06:17:02.462Z,42.60
2019-02-17T06:19:31.961Z,42.74
2019-02-17T06:22:01.367Z,43.00
2019-02-17T06:24:30.884Z,42.57
2019-02-17T06:27:00.226Z,42.62
2019-02-17T06:29:29.614Z,42.58
2019-02-17T06:31:59.024Z,42.63
2019-02-17T06:34:28.428Z,43.18
2019-02-17T06:36:57.804Z,43.00
2019-02-17T06:39:27.181Z,42.88
2019-02-17T06:41:56.569Z,44.05
2019-02-17T06:44:25.928Z,42.80
2019-02-17T06:46:59.283Z,43.54
2019-02-17T06:49:28.662Z,47.17
2019-02-17T06:51:58.059Z,44.45
2019-02-17T06:54:27.437Z,44.54
2019-02-17T06:57:03.829Z,44.28
2019-02-17T06:59:33.264Z,44.56
2019-02-17T07:02:02.725Z,44.35
2019-02-17T07:04:51.207Z,44.32
2019-02-17T07:07:20.586Z,45.78
2019-02-17T07:09:49.979Z,45.51
2019-02-17T07:12:19.365Z,45.00
2019-02-17T07:14:48.743Z,45.29
2019-02-17T07:17:18.119Z,45.76
2019-02-17T07:19:47.485Z,46.05
2019-02-17T07:22:16.876Z,46.48
2019-02-17T07:24:46.375Z,47.02
2019-02-17T07:27:15.857Z,47.49
2019-02-17T07:29:45.243Z,47.08
2019-02-17T07:32:14.613Z,48.75
2019-02-17T07:34:44.076Z,54.08
2019-02-17T07:37:13.468Z,52.46
2019-02-17T07:39:42.872Z,51.95
2019-02-17T07:42:12.277Z,51.67
2019-02-17T07:44:41.674Z,52.00
2019-02-17T07:47:11.153Z,49.12
2019-02-17T07:49:40.567Z,49.41
2019-02-17T07:52:09.982Z,48.70
2019-02-17T07:54:39.606Z,49.42
2019-02-17T07:57:08.982Z,48.36
2019-02-17T07:59:38.458Z,49.50
2019-02-17T08:02:07.921Z,49.65
2019-02-17T08:04:37.316Z,50.24
2019-02-17T08:07:06.722Z,50.48
2019-02-17T08:09:36.122Z,50.80
2019-02-17T08:12:05.528Z,51.21
2019-02-17T08:14:34.930Z,52.36
2019-02-17T08:17:04.394Z,54.11
2019-02-17T08:19:33.802Z,52.45
2019-02-17T08:22:03.212Z,53.11
2019-02-17T08:24:32.616Z,53.12
2019-02-17T08:27:04.542Z,53.81
2019-02-17T08:29:33.190Z,56.15
2019-02-17T08:32:02.615Z,55.89
2019-02-17T08:34:32.008Z,57.33
2019-02-17T08:37:01.369Z,57.56
2019-02-17T08:39:30.783Z,60.98
2019-02-17T08:42:00.169Z,62.55
2019-02-17T08:44:29.621Z,63.68
2019-02-17T08:46:59.012Z,64.58
2019-02-17T08:49:28.406Z,63.96
2019-02-17T08:51:57.809Z,63.43
2019-02-17T08:54:27.203Z,66.15
2019-02-17T08:56:56.591Z,64.90
2019-02-17T08:59:26.000Z,66.26
2019-02-17T09:02:05.382Z,65.61
2019-02-17T09:04:26.597Z,65.10
2019-02-17T09:06:56.067Z,64.60
2019-02-17T09:09:25.518Z,63.81
2019-02-17T09:11:55.167Z,63.15
2019-02-17T09:14:24.627Z,63.53
2019-02-17T09:16:54.009Z,62.35
2019-02-17T09:19:23.432Z,62.72
2019-02-17T09:21:52.856Z,63.18
2019-02-17T09:24:22.259Z,61.44
2019-02-17T09:26:51.635Z,63.50
2019-02-17T09:29:21.029Z,63.78
2019-02-17T09:31:50.509Z,63.62
2019-02-17T09:34:19.970Z,62.98
2019-02-17T09:36:49.432Z,63.83
2019-02-17T09:39:20.159Z,63.23
2019-02-17T09:41:50.795Z,63.95
2019-02-17T09:44:20.217Z,63.80
2019-02-17T09:46:50.893Z,63.47
2019-02-17T09:49:20.281Z,64.02
2019-02-17T09:51:49.763Z,59.78
2019-02-17T09:54:19.198Z,63.12
2019-02-17T09:56:48.703Z,61.59
2019-02-17T09:59:18.129Z,55.66
2019-02-17T10:01:47.506Z,63.69
2019-02-17T10:04:16.872Z,61.32
2019-02-17T10:06:46.288Z,62.14
2019-02-17T10:09:15.754Z,62.73
2019-02-17T10:11:45.259Z,58.92
2019-02-17T10:14:14.751Z,61.26
2019-02-17T10:16:44.129Z,58.96
2019-02-17T10:19:13.545Z,62.50
2019-02-17T10:21:42.930Z,63.66
2019-02-17T10:24:12.331Z,63.19
2019-02-17T10:26:41.701Z,63.12
2019-02-17T10:29:11.081Z,60.92
2019-02-17T10:31:40.483Z,62.97
2019-02-17T10:34:09.865Z,62.48
2019-02-17T10:36:39.254Z,58.83
2019-02-17T10:39:08.755Z,62.86
2019-02-17T10:41:38.294Z,60.53
2019-02-17T10:44:07.602Z,61.76
2019-02-17T10:46:37.055Z,61.11
2019-02-17T10:49:06.511Z,61.37
2019-02-17T10:51:35.907Z,61.53
2019-02-17T10:54:05.440Z,61.17
2019-02-17T10:56:34.821Z,60.37
2019-02-17T10:59:04.185Z,60.54
2019-02-17T11:01:33.566Z,61.82
2019-02-17T11:04:05.342Z,58.01
2019-02-17T11:06:34.902Z,58.43
2019-02-17T11:09:07.946Z,58.69
2019-02-17T11:11:37.316Z,57.13
2019-02-17T11:14:06.682Z,60.29
2019-02-17T11:16:36.033Z,58.76
2019-02-17T11:19:05.384Z,59.30
2019-02-17T11:21:34.737Z,59.63
2019-02-17T11:24:04.123Z,59.34
2019-02-17T11:26:33.483Z,59.36
2019-02-17T11:29:02.857Z,59.73
2019-02-17T11:31:34.626Z,60.18
2019-02-17T11:34:04.091Z,60.95
2019-02-17T11:36:34.609Z,59.47
2019-02-17T11:39:07.529Z,59.11
2019-02-17T11:41:37.226Z,60.25
2019-02-17T11:44:06.576Z,60.02
2019-02-17T11:46:36.032Z,59.04
2019-02-17T11:49:05.498Z,59.79
2019-02-17T11:51:34.869Z,60.47
2019-02-17T11:54:04.313Z,60.36
2019-02-17T11:56:33.663Z,61.39
2019-02-17T11:59:03.034Z,61.11
2019-02-17T12:01:32.509Z,60.85
2019-02-17T12:04:01.900Z,59.77
2019-02-17T12:06:31.330Z,60.88
2019-02-17T12:09:00.707Z,61.66
2019-02-17T12:11:30.067Z,61.00
2019-02-17T12:13:59.458Z,61.38
2019-02-17T12:16:36.791Z,59.92
2019-02-17T12:18:59.872Z,60.76
2019-02-17T12:21:39.611Z,61.53
2019-02-17T12:24:14.075Z,60.83
2019-02-17T12:26:49.959Z,57.14
2019-02-17T12:29:30.499Z,58.87
2019-02-17T12:31:59.875Z,61.77
2019-02-17T12:34:29.252Z,61.77
2019-02-17T12:36:58.644Z,59.59
2019-02-17T12:39:27.964Z,58.29
2019-02-17T12:41:57.326Z,42.55
2019-02-17T12:44:26.690Z,40.62
2019-02-17T12:46:56.155Z,39.80
2019-02-17T12:49:25.532Z,47.91
2019-02-17T12:51:54.894Z,52.21
2019-02-17T12:54:29.122Z,55.10
2019-02-17T12:56:55.323Z,56.15
2019-02-17T12:59:24.690Z,55.38
2019-02-17T13:01:54.034Z,54.17
2019-02-17T13:04:23.426Z,53.52
2019-02-17T13:06:52.846Z,51.58
2019-02-17T13:09:22.204Z,51.20
2019-02-17T13:11:51.634Z,44.38
2019-02-17T13:14:20.994Z,50.39
2019-02-17T13:16:50.440Z,49.39
2019-02-17T13:19:19.875Z,48.64
2019-02-17T13:21:49.184Z,48.81
2019-02-17T13:24:18.545Z,47.87
2019-02-17T13:26:47.901Z,47.71
2019-02-17T13:29:17.264Z,47.54
2019-02-17T13:31:46.700Z,47.39
2019-02-17T13:34:16.093Z,46.71
2019-02-17T13:36:45.487Z,46.38
2019-02-17T13:39:14.911Z,45.81
2019-02-17T13:41:44.272Z,45.41
2019-02-17T13:44:13.637Z,44.44
2019-02-17T13:46:43.025Z,43.33
2019-02-17T13:49:12.380Z,43.26
2019-02-17T13:51:41.761Z,42.71
2019-02-17T13:54:11.096Z,43.24
2019-02-17T13:56:40.449Z,42.80
2019-02-17T13:59:09.826Z,43.22
2019-02-17T14:01:39.185Z,44.16
2019-02-17T14:04:08.552Z,43.90
2019-02-17T14:06:37.910Z,45.50
2019-02-17T14:09:07.259Z,46.33
2019-02-17T14:11:36.617Z,47.06
2019-02-17T14:14:05.973Z,47.10
2019-02-17T14:16:35.371Z,47.05
2019-02-17T14:19:04.793Z,47.85
2019-02-17T14:21:34.168Z,48.09
2019-02-17T14:24:03.520Z,48.46
2019-02-17T14:26:32.878Z,48.79
2019-02-17T14:29:02.232Z,47.26
2019-02-17T14:31:31.603Z,49.55
2019-02-17T14:34:00.972Z,50.03
2019-02-17T14:36:30.337Z,50.05
2019-02-17T14:38:59.731Z,49.52
2019-02-17T14:41:29.075Z,50.07
2019-02-17T14:43:58.433Z,49.97
2019-02-17T14:46:27.804Z,49.10
2019-02-17T14:48:57.151Z,48.95
2019-02-17T14:51:26.523Z,48.77
2019-02-17T14:53:55.886Z,47.81
2019-02-17T14:56:25.257Z,47.78
2019-02-17T14:58:54.627Z,48.62
2019-02-17T15:01:23.997Z,48.71
2019-02-17T15:03:53.347Z,48.95
2019-02-17T15:06:22.709Z,43.35
2019-02-17T15:08:52.069Z,48.47
2019-02-17T15:11:21.442Z,46.98
2019-02-17T15:13:50.823Z,48.57
2019-02-17T15:16:20.455Z,48.20
2019-02-17T15:18:49.830Z,47.51
2019-02-17T15:21:19.260Z,47.99
2019-02-17T15:23:48.632Z,48.32
2019-02-17T15:26:17.998Z,47.46
2019-02-17T15:28:51.273Z,47.58
2019-02-17T15:31:18.412Z,47.24
2019-02-17T15:33:48.057Z,46.88
2019-02-17T15:36:17.446Z,46.72
2019-02-17T15:38:46.820Z,46.40
2019-02-17T15:41:16.163Z,46.08
2019-02-17T15:43:45.544Z,45.77
2019-02-17T15:46:14.909Z,45.36
2019-02-17T15:48:44.267Z,44.71
2019-02-17T15:51:13.633Z,44.51
2019-02-17T15:53:42.988Z,44.44
2019-02-17T15:56:12.339Z,43.63
2019-02-17T15:58:41.734Z,42.96
2019-02-17T16:01:11.116Z,42.66
2019-02-17T16:03:40.516Z,42.64
2019-02-17T16:06:09.866Z,42.03
2019-02-17T16:08:39.222Z,41.20
2019-02-17T16:11:08.579Z,39.81
2019-02-17T16:13:37.938Z,38.23
2019-02-17T16:16:09.276Z,37.09
2019-02-17T16:18:38.612Z,36.03
2019-02-17T16:21:07.964Z,34.88
2019-02-17T16:23:37.335Z,34.37
2019-02-17T16:26:06.779Z,34.04
2019-02-17T16:28:36.161Z,33.68
2019-02-17T16:31:05.508Z,33.33
2019-02-17T16:33:34.881Z,33.20
2019-02-17T16:36:04.333Z,32.98
2019-02-17T16:38:33.712Z,32.73
2019-02-17T16:41:03.073Z,32.52
2019-02-17T16:43:32.439Z,32.44
2019-02-17T16:46:01.899Z,32.40
2019-02-17T16:48:31.263Z,32.36
2019-02-17T16:51:01.076Z,32.35
2019-02-17T16:53:30.464Z,32.28
2019-02-17T16:55:59.829Z,32.20
2019-02-17T16:58:29.193Z,32.22
2019-02-17T17:00:58.540Z,32.18
2019-02-17T17:03:27.894Z,32.13
2019-02-17T17:05:57.258Z,32.43
2019-02-17T17:08:26.622Z,32.69
2019-02-17T17:10:56.053Z,32.88
2019-02-17T17:13:25.682Z,33.07
2019-02-17T17:15:56.855Z,33.24
2019-02-17T17:18:26.215Z,33.40
2019-02-17T17:20:55.573Z,33.52
2019-02-17T17:23:24.932Z,33.71
2019-02-17T17:25:54.304Z,36.26
2019-02-17T17:28:25.817Z,33.99
2019-02-17T17:30:54.732Z,34.10
2019-02-17T17:33:24.084Z,34.15
2019-02-17T17:35:58.875Z,34.25
2019-02-17T17:38:28.238Z,34.40
2019-02-17T17:40:57.620Z,34.54
2019-02-17T17:43:26.948Z,34.71
2019-02-17T17:45:56.410Z,34.97
2019-02-17T17:48:25.764Z,35.14
2019-02-17T17:50:55.128Z,35.62
2019-02-17T17:53:24.504Z,35.85
2019-02-17T17:55:53.876Z,36.12
2019-02-17T17:58:23.245Z,36.44
2019-02-17T18:00:52.612Z,36.68
2019-02-17T18:03:21.963Z,36.85
2019-02-17T18:05:51.326Z,36.83
2019-02-17T18:08:20.688Z,36.90
2019-02-17T18:10:50.051Z,37.02
2019-02-17T18:13:19.411Z,37.09
2019-02-17T18:15:48.801Z,37.24
2019-02-17T18:18:18.173Z,37.48
2019-02-17T18:20:47.528Z,37.82
2019-02-17T18:23:16.905Z,38.26
2019-02-17T18:25:46.326Z,38.68
2019-02-17T18:28:15.683Z,38.98
2019-02-17T18:30:45.060Z,39.21
2019-02-17T18:33:14.410Z,39.40
2019-02-17T18:35:43.808Z,39.54
2019-02-17T18:38:13.163Z,39.64
2019-02-17T18:40:45.010Z,39.75
2019-02-17T18:43:13.582Z,39.89
2019-02-17T18:45:42.953Z,39.96
2019-02-17T18:48:12.316Z,40.01
2019-02-17T18:50:41.695Z,40.13
2019-02-17T18:53:11.130Z,40.21
2019-02-17T18:55:40.492Z,40.20
2019-02-17T18:58:09.883Z,40.42
2019-02-17T19:00:39.246Z,40.71
2019-02-17T19:03:10.242Z,40.79
2019-02-17T19:05:39.707Z,40.96
2019-02-17T19:08:09.060Z,41.55
2019-02-17T19:10:38.432Z,41.99
2019-02-17T19:13:07.873Z,42.52
2019-02-17T19:15:37.233Z,42.67
2019-02-17T19:18:06.578Z,42.52
2019-02-17T19:20:35.988Z,50.53
2019-02-17T19:23:05.422Z,43.66
2019-02-17T19:25:34.966Z,42.53
2019-02-17T19:28:04.325Z,42.33
2019-02-17T19:30:33.694Z,42.15
2019-02-17T19:33:03.064Z,42.05
2019-02-17T19:35:41.539Z,41.95
2019-02-17T19:38:03.552Z,42.02
2019-02-17T19:40:32.914Z,42.02
2019-02-17T19:43:03.528Z,42.06
2019-02-17T19:45:33.130Z,42.22
2019-02-17T19:48:02.511Z,42.26
2019-02-17T19:50:32.707Z,42.34
2019-02-17T19:53:02.107Z,42.38
2019-02-17T19:55:31.580Z,42.40
2019-02-17T19:58:01.353Z,42.34
2019-02-17T20:00:30.906Z,42.28
2019-02-17T20:03:18.382Z,42.25
2019-02-17T20:05:52.415Z,42.40
2019-02-17T20:08:21.979Z,42.26
2019-02-17T20:13:34.332Z,42.35
2019-02-17T20:16:03.728Z,42.39
2019-02-17T20:18:33.267Z,42.39
2019-02-17T20:21:02.802Z,45.08
2019-02-17T20:23:32.508Z,43.17
2019-02-17T20:26:04.515Z,44.39
2019-02-17T20:28:43.398Z,43.63
2019-02-17T20:31:07.530Z,43.60
2019-02-17T20:33:37.143Z,43.54
2019-02-17T20:36:06.865Z,43.49
2019-02-17T20:38:36.435Z,43.64
2019-02-17T20:41:06.133Z,43.45
2019-02-17T20:43:35.726Z,43.44
2019-02-17T20:46:05.257Z,43.67
2019-02-17T20:48:34.903Z,43.61
2019-02-17T20:51:04.577Z,43.87
2019-02-17T20:53:34.322Z,43.90
2019-02-17T20:56:04.130Z,43.82
2019-02-17T20:58:33.744Z,43.95
2019-02-17T21:01:03.377Z,43.95
2019-02-17T21:03:32.998Z,43.83
2019-02-17T21:06:12.241Z,44.00
2019-02-17T21:08:33.982Z,44.29
2019-02-17T21:11:03.621Z,44.20
2019-02-17T21:13:33.313Z,44.27
2019-02-17T21:16:03.024Z,44.48
2019-02-17T21:18:32.778Z,44.79
2019-02-17T21:21:02.305Z,44.99
2019-02-17T21:23:31.861Z,44.73
2019-02-17T21:26:01.441Z,44.66
2019-02-17T21:28:31.095Z,44.57
2019-02-17T21:31:00.638Z,44.55
2019-02-17T21:33:30.183Z,44.60
2019-02-17T21:35:59.712Z,44.50
2019-02-17T21:38:29.289Z,44.51
2019-02-17T21:41:08.759Z,44.36
2019-02-17T21:43:30.114Z,44.19
2019-02-17T21:45:59.806Z,44.21
2019-02-17T21:48:29.363Z,44.32
2019-02-17T21:50:58.907Z,44.18
2019-02-17T21:53:28.422Z,44.61
2019-02-17T21:55:57.964Z,45.00
2019-02-17T21:58:27.637Z,44.93
2019-02-17T22:00:57.172Z,45.13
2019-02-17T22:03:26.700Z,45.34
2019-02-17T22:05:56.229Z,45.35
2019-02-17T22:08:25.837Z,45.31
2019-02-17T22:10:55.441Z,45.19
2019-02-17T22:13:25.039Z,45.31
2019-02-17T22:15:54.560Z,45.46
2019-02-17T22:18:24.168Z,45.59
2019-02-17T22:20:53.753Z,45.37
2019-02-17T22:23:23.284Z,45.73
2019-02-17T22:25:52.823Z,45.72
2019-02-17T22:28:22.420Z,45.84
2019-02-17T22:30:51.900Z,46.12
2019-02-17T22:33:21.500Z,46.03
2019-02-17T22:35:51.049Z,46.40
2019-02-17T22:38:20.577Z,46.55
2019-02-17T22:40:50.113Z,46.80
2019-02-17T22:43:19.642Z,47.24
2019-02-17T22:45:49.164Z,46.95
2019-02-17T22:48:18.835Z,47.02
2019-02-17T22:50:48.449Z,46.31
2019-02-17T22:53:18.164Z,46.25
2019-02-17T22:55:47.701Z,46.18
2019-02-17T22:58:17.410Z,46.31
2019-02-17T23:01:03.935Z,45.98
2019-02-17T23:03:33.898Z,45.25
2019-02-17T23:06:03.706Z,45.01
2019-02-17T23:08:33.519Z,44.76
2019-02-17T23:11:03.071Z,44.72
2019-02-17T23:13:33.094Z,44.49
2019-02-17T23:16:02.741Z,44.34
2019-02-17T23:18:32.305Z,44.34
2019-02-17T23:21:01.919Z,44.37
2019-02-17T23:23:31.455Z,44.57
2019-02-17T23:26:01.034Z,44.06
2019-02-17T23:28:30.663Z,44.31
2019-02-17T23:31:00.199Z,44.47
2019-02-17T23:33:29.736Z,43.69
2019-02-17T23:35:59.248Z,43.60
2019-02-17T23:38:28.782Z,43.83
2019-02-17T23:40:58.325Z,44.23
2019-02-17T23:43:27.847Z,43.89
2019-02-17T23:45:57.396Z,44.04
2019-02-17T23:48:26.934Z,43.64
2019-02-17T23:50:56.554Z,43.84
2019-02-17T23:53:26.087Z,43.22
2019-02-17T23:55:55.655Z,43.43
2019-02-17T23:58:25.161Z,43.31
